Time;durP1;ratioP1;P1;durP2;ratioP2;P2;SDS_P1;SDS_P2;PMS_P1;PMS_P2;Temp;Humidity;BMP_temperature;BMP_pressure;BME280_temperature;BME280_humidity;BME280_pressure;Samples;Min_cycle;Max_cycle;Signal;HPM_P1;HPM_P2
2022/07/26 00:02:19;;;;;;;6.83;1.03;;;;;;;;;;4970667;28;20309;-71
2022/07/26 00:04:44;;;;;;;12.27;1.30;;;;;;;;;;4971881;28;20278;-71
2022/07/26 00:07:09;;;;;;;7.03;0.93;;;;;;;;;;4973995;28;20423;-70
2022/07/26 00:09:35;;;;;;;11.23;1.27;;;;;;;;;;4972376;28;20770;-70
2022/07/26 00:12:00;;;;;;;6.70;1.07;;;;;;;;;;4970714;28;20314;-71
2022/07/26 00:14:25;;;;;;;9.33;0.73;;;;;;;;;;4970830;28;20285;-71
2022/07/26 00:16:50;;;;;;;10.93;2.13;;;;;;;;;;4973782;28;20022;-71
2022/07/26 00:19:15;;;;;;;3.38;0.85;;;;;;;;;;4971201;28;20278;-70
2022/07/26 00:21:40;;;;;;;7.93;1.50;;;;;;;;;;4971410;28;20102;-71
2022/07/26 00:24:24;;;;;;;5.55;0.63;;;;;;;;;;4971588;28;20034;-70
2022/07/26 00:27:09;;;;;;;6.53;0.98;;;;;;;;;;4974155;28;20035;-68
2022/07/26 00:29:34;;;;;;;5.18;1.00;;;;;;;;;;4971612;28;20031;-69
2022/07/26 00:31:59;;;;;;;3.03;0.70;;;;;;;;;;4971463;28;20018;-72
2022/07/26 00:34:24;;;;;;;6.40;0.90;;;;;;;;;;4971337;28;20084;-70
2022/07/26 00:36:49;;;;;;;7.22;1.15;;;;;;;;;;4972760;28;20042;-70
2022/07/26 00:39:15;;;;;;;3.80;1.20;;;;;;;;;;4972197;28;20022;-70
2022/07/26 00:41:40;;;;;;;10.30;1.07;;;;;;;;;;4970975;28;20057;-71
2022/07/26 00:44:05;;;;;;;9.75;1.48;;;;;;;;;;4971666;28;21032;-71
2022/07/26 00:46:30;;;;;;;3.65;0.98;;;;;;;;;;4972838;28;20045;-71
2022/07/26 00:48:56;;;;;;;7.87;0.80;;;;;;;;;;4970357;28;20031;-71
2022/07/26 00:51:21;;;;;;;6.10;1.40;;;;;;;;;;4970806;28;20306;-71
2022/07/26 00:53:47;;;;;;;13.63;2.33;;;;;;;;;;4972813;28;20023;-71
2022/07/26 00:56:13;;;;;;;4.45;0.93;;;;;;;;;;4971022;28;20019;-71
2022/07/26 00:58:39;;;;;;;5.70;1.10;;;;;;;;;;4970712;28;20426;-71
2022/07/26 01:01:04;;;;;;;4.40;1.10;;;;;;;;;;4971205;28;20077;-71
2022/07/26 01:03:29;;;;;;;10.10;1.30;;;;;;;;;;4968513;28;20048;-68
2022/07/26 01:05:54;;;;;;;5.47;1.10;;;;;;;;;;4972167;28;20282;-71
2022/07/26 01:08:20;;;;;;;12.05;1.20;;;;;;;;;;4971070;28;20290;-71
2022/07/26 01:10:45;;;;;;;7.45;0.90;;;;;;;;;;4969627;28;20047;-71
2022/07/26 01:13:11;;;;;;;3.65;0.95;;;;;;;;;;4971524;28;20015;-71
2022/07/26 01:15:37;;;;;;;6.30;0.90;;;;;;;;;;4971125;28;20031;-71
2022/07/26 01:18:02;;;;;;;6.80;1.00;;;;;;;;;;4968230;28;20031;-71
2022/07/26 01:20:27;;;;;;;6.72;1.23;;;;;;;;;;4971528;28;20736;-71
2022/07/26 01:22:52;;;;;;;10.70;1.40;;;;;;;;;;4970234;28;20023;-71
2022/07/26 01:25:27;;;;;;;17.48;2.00;;;;;;;;;;4971584;28;20294;-71
2022/07/26 01:27:52;;;;;;;8.93;1.30;;;;;;;;;;4970749;28;20027;-70
2022/07/26 01:30:17;;;;;;;11.57;1.83;;;;;;;;;;4969581;28;20022;-71
2022/07/26 01:32:42;;;;;;;9.03;1.23;;;;;;;;;;4971094;28;20277;-71
2022/07/26 01:35:08;;;;;;;8.50;1.47;;;;;;;;;;4969698;28;20297;-71
2022/07/26 01:37:33;;;;;;;5.07;1.27;;;;;;;;;;4972948;28;20282;-70
2022/07/26 01:39:58;;;;;;;6.85;1.40;;;;;;;;;;4968047;28;20027;-71
2022/07/26 01:42:23;;;;;;;8.25;1.80;;;;;;;;;;4971807;28;20018;-70
2022/07/26 01:44:48;;;;;;;10.20;1.63;;;;;;;;;;4970003;28;20033;-70
2022/07/26 01:47:14;;;;;;;8.60;1.90;;;;;;;;;;4971669;28;20274;-68
2022/07/26 01:49:39;;;;;;;4.50;1.10;;;;;;;;;;4969348;28;20278;-71
2022/07/26 01:52:04;;;;;;;4.00;1.37;;;;;;;;;;4969439;28;20766;-70
2022/07/26 01:54:29;;;;;;;12.48;1.92;;;;;;;;;;4970872;28;20302;-71
2022/07/26 01:56:54;;;;;;;7.27;1.57;;;;;;;;;;4970911;28;20093;-71
2022/07/26 01:59:20;;;;;;;8.70;1.43;;;;;;;;;;4969273;28;20635;-68
2022/07/26 02:01:45;;;;;;;11.07;1.42;;;;;;;;;;4969624;28;20282;-71
2022/07/26 02:04:57;;;;;;;11.90;1.20;;;;;;;;;;4969865;28;20033;-71
2022/07/26 02:06:55;;;;;;;6.95;1.33;;;;;;;;;;4970484;28;20034;-70
2022/07/26 02:09:20;;;;;;;9.87;1.50;;;;;;;;;;4969288;28;20513;-71
2022/07/26 02:11:47;;;;;;;6.53;1.00;;;;;;;;;;4969410;28;20282;-69
2022/07/26 02:14:13;;;;;;;4.60;1.30;;;;;;;;;;4971596;28;20769;-71
2022/07/26 02:16:38;;;;;;;9.07;1.33;;;;;;;;;;4971043;28;20062;-69
2022/07/26 02:19:03;;;;;;;12.20;1.57;;;;;;;;;;4968519;28;20078;-71
2022/07/26 02:21:28;;;;;;;2.27;0.90;;;;;;;;;;4969085;28;20750;-70
2022/07/26 02:23:53;;;;;;;7.97;1.30;;;;;;;;;;4970566;28;20290;-71
2022/07/26 02:26:18;;;;;;;5.07;1.10;;;;;;;;;;4968901;28;20341;-71
2022/07/26 02:28:44;;;;;;;11.17;1.70;;;;;;;;;;4969412;28;21000;-71
2022/07/26 02:31:09;;;;;;;12.57;1.20;;;;;;;;;;4968960;28;20801;-70
2022/07/26 02:33:34;;;;;;;13.63;1.77;;;;;;;;;;4970124;28;20274;-71
2022/07/26 02:35:59;;;;;;;10.80;1.48;;;;;;;;;;4970451;28;20377;-71
2022/07/26 02:38:24;;;;;;;13.00;2.40;;;;;;;;;;4970019;28;20497;-70
2022/07/26 02:40:51;;;;;;;18.97;1.73;;;;;;;;;;4968597;28;20547;-69
2022/07/26 02:43:16;;;;;;;8.63;1.60;;;;;;;;;;4970127;28;20671;-71
2022/07/26 02:45:41;;;;;;;5.80;1.43;;;;;;;;;;4969818;28;20026;-71
2022/07/26 02:48:07;;;;;;;3.73;1.30;;;;;;;;;;4969439;28;20290;-71
2022/07/26 02:50:32;;;;;;;9.10;1.50;;;;;;;;;;4968860;28;20270;-71
2022/07/26 02:52:57;;;;;;;7.15;1.73;;;;;;;;;;4969962;28;20038;-70
2022/07/26 02:55:23;;;;;;;11.05;3.05;;;;;;;;;;4970510;28;20019;-71
2022/07/26 02:57:49;;;;;;;5.93;1.20;;;;;;;;;;4966117;28;20051;-71
2022/07/26 03:00:15;;;;;;;6.97;1.85;;;;;;;;;;4973623;28;20423;-71
2022/07/26 03:02:40;;;;;;;11.15;1.90;;;;;;;;;;4968361;28;20035;-71
2022/07/26 03:05:06;;;;;;;6.20;2.00;;;;;;;;;;4969962;28;20025;-69
2022/07/26 03:07:32;;;;;;;7.40;1.73;;;;;;;;;;4970537;28;20531;-72
2022/07/26 03:09:57;;;;;;;5.00;1.63;;;;;;;;;;4967885;28;20031;-71
2022/07/26 03:12:22;;;;;;;14.80;3.13;;;;;;;;;;4970181;28;20475;-71
2022/07/26 03:14:48;;;;;;;8.07;1.50;;;;;;;;;;4983465;28;20018;-70
2022/07/26 03:17:13;;;;;;;10.33;1.97;;;;;;;;;;4968936;28;20420;-71
2022/07/26 03:19:38;;;;;;;5.57;1.83;;;;;;;;;;4967174;28;20314;-71
2022/07/26 03:22:03;;;;;;;8.98;1.83;;;;;;;;;;4969292;28;20274;-71
2022/07/26 03:24:28;;;;;;;11.13;1.60;;;;;;;;;;4969294;28;20114;-71
2022/07/26 03:26:54;;;;;;;7.70;1.63;;;;;;;;;;4969060;28;20270;-71
2022/07/26 03:29:19;;;;;;;12.23;1.50;;;;;;;;;;4967925;28;20662;-71
2022/07/26 03:31:44;;;;;;;13.85;1.60;;;;;;;;;;4968475;28;20468;-71
2022/07/26 03:34:09;;;;;;;9.70;1.73;;;;;;;;;;4968956;28;20030;-71
2022/07/26 03:36:34;;;;;;;13.70;1.60;;;;;;;;;;4970455;28;20282;-71
2022/07/26 03:38:59;;;;;;;13.60;1.70;;;;;;;;;;4972082;28;20686;-71
2022/07/26 03:41:25;;;;;;;12.18;2.10;;;;;;;;;;4973257;28;20281;-69
2022/07/26 03:43:50;;;;;;;9.40;1.83;;;;;;;;;;4973673;28;20039;-71
2022/07/26 03:46:15;;;;;;;12.60;3.57;;;;;;;;;;4973557;28;20114;-71
2022/07/26 03:48:40;;;;;;;13.07;1.97;;;;;;;;;;4970658;28;20286;-71
2022/07/26 03:51:05;;;;;;;15.80;2.20;;;;;;;;;;4973061;28;20258;-71
2022/07/26 03:53:31;;;;;;;12.37;1.93;;;;;;;;;;4971299;28;20274;-71
2022/07/26 03:58:39;;;;;;;9.25;2.13;;;;;;;;;;4971926;28;20085;-70
2022/07/26 04:01:05;;;;;;;7.03;2.80;;;;;;;;;;4973171;28;20026;-71
2022/07/26 04:03:30;;;;;;;10.20;1.70;;;;;;;;;;4973787;28;20654;-71
2022/07/26 04:05:55;;;;;;;19.53;2.33;;;;;;;;;;4972500;28;20290;-71
2022/07/26 04:08:20;;;;;;;14.63;2.57;;;;;;;;;;4970505;28;20304;-70
2022/07/26 04:10:46;;;;;;;12.68;1.90;;;;;;;;;;4972447;28;20027;-71
2022/07/26 04:13:11;;;;;;;7.88;1.75;;;;;;;;;;4972019;28;20019;-71
2022/07/26 04:15:36;;;;;;;11.43;1.63;;;;;;;;;;4972566;28;20038;-71
2022/07/26 04:18:02;;;;;;;20.07;2.87;;;;;;;;;;4972768;28;20270;-71
2022/07/26 04:20:27;;;;;;;18.20;2.70;;;;;;;;;;4995983;23;20591;-68
2022/07/26 04:22:52;;;;;;;10.97;2.17;;;;;;;;;;4984289;28;20270;-67
2022/07/26 04:25:17;;;;;;;13.73;2.60;;;;;;;;;;4990000;28;20276;-68
2022/07/26 04:27:42;;;;;;;8.38;1.92;;;;;;;;;;4992964;28;20459;-67
2022/07/26 04:30:08;;;;;;;14.88;1.77;;;;;;;;;;4979507;28;20544;-68
2022/07/26 04:32:33;;;;;;;19.20;2.70;;;;;;;;;;5010286;28;20014;-67
2022/07/26 04:34:58;;;;;;;13.87;2.17;;;;;;;;;;5006057;28;20076;-67
2022/07/26 04:37:24;;;;;;;15.57;1.70;;;;;;;;;;5007369;28;20315;-67
2022/07/26 04:39:49;;;;;;;9.77;2.40;;;;;;;;;;5003902;28;20352;-67
2022/07/26 04:42:14;;;;;;;10.60;2.00;;;;;;;;;;5008731;28;20037;-67
2022/07/26 04:44:39;;;;;;;10.60;1.93;;;;;;;;;;5002196;28;20316;-67
2022/07/26 04:47:04;;;;;;;12.77;2.30;;;;;;;;;;5008537;28;20763;-67
2022/07/26 04:49:30;;;;;;;13.48;2.70;;;;;;;;;;5003589;28;20397;-67
2022/07/26 04:51:55;;;;;;;8.43;2.30;;;;;;;;;;5008208;28;20048;-68
2022/07/26 04:54:21;;;;;;;10.50;2.73;;;;;;;;;;5008288;28;20276;-67
2022/07/26 04:56:47;;;;;;;17.33;2.00;;;;;;;;;;5010614;28;20331;-67
2022/07/26 04:59:12;;;;;;;9.10;3.17;;;;;;;;;;5005472;28;20018;-68
2022/07/26 05:01:37;;;;;;;14.45;2.65;;;;;;;;;;5001569;28;20501;-67
2022/07/26 05:04:03;;;;;;;14.30;2.33;;;;;;;;;;5003386;28;20036;-67
2022/07/26 05:06:28;;;;;;;11.53;2.67;;;;;;;;;;5004469;28;20753;-67
2022/07/26 05:08:53;;;;;;;13.77;2.47;;;;;;;;;;5006246;28;20285;-67
2022/07/26 05:11:18;;;;;;;8.70;3.05;;;;;;;;;;5000501;28;20019;-68
2022/07/26 05:13:43;;;;;;;21.43;2.60;;;;;;;;;;5000426;28;20022;-67
2022/07/26 05:16:09;;;;;;;12.03;3.40;;;;;;;;;;5000477;28;20326;-69
2022/07/26 05:18:34;;;;;;;28.40;3.63;;;;;;;;;;5004539;28;20021;-67
2022/07/26 05:21:00;;;;;;;23.90;3.40;;;;;;;;;;5002104;28;20083;-68
2022/07/26 05:23:25;;;;;;;14.02;3.30;;;;;;;;;;5001972;28;20846;-67
2022/07/26 05:25:50;;;;;;;16.70;3.40;;;;;;;;;;4999408;28;20064;-68
2022/07/26 05:28:16;;;;;;;14.83;3.23;;;;;;;;;;5004210;28;20285;-67
2022/07/26 05:30:41;;;;;;;18.93;3.10;;;;;;;;;;5001643;28;20761;-67
2022/07/26 05:33:06;;;;;;;10.83;2.93;;;;;;;;;;5005268;28;20072;-67
2022/07/26 05:35:31;;;;;;;6.77;2.93;;;;;;;;;;5003934;28;20471;-67
2022/07/26 05:37:56;;;;;;;12.83;3.60;;;;;;;;;;4995832;28;20026;-68
2022/07/26 05:40:22;;;;;;;13.93;3.40;;;;;;;;;;5000541;28;20723;-67
2022/07/26 05:42:47;;;;;;;14.80;3.53;;;;;;;;;;5005457;28;20398;-68
2022/07/26 05:45:12;;;;;;;17.05;3.63;;;;;;;;;;5006405;28;20022;-68
2022/07/26 05:47:37;;;;;;;16.92;3.40;;;;;;;;;;5007659;28;20107;-68
2022/07/26 05:50:03;;;;;;;18.05;4.15;;;;;;;;;;4995418;28;20017;-68
2022/07/26 05:52:28;;;;;;;20.10;4.00;;;;;;;;;;5001660;28;20022;-68
2022/07/26 05:54:54;;;;;;;16.90;3.22;;;;;;;;;;5007911;28;20022;-68
2022/07/26 05:57:19;;;;;;;13.27;3.22;;;;;;;;;;5007255;28;20101;-68
2022/07/26 05:59:44;;;;;;;18.17;3.35;;;;;;;;;;4996638;28;20106;-68
2022/07/26 06:02:09;;;;;;;14.03;3.67;;;;;;;;;;5009936;28;20057;-68
2022/07/26 06:04:35;;;;;;;22.65;4.80;;;;;;;;;;5006013;28;20269;-68
2022/07/26 06:07:00;;;;;;;24.97;4.40;;;;;;;;;;5005382;28;20081;-68
2022/07/26 06:09:25;;;;;;;15.35;4.07;;;;;;;;;;5001168;28;20300;-68
2022/07/26 06:11:51;;;;;;;19.17;4.15;;;;;;;;;;5001762;28;20398;-68
2022/07/26 06:14:17;;;;;;;22.50;4.40;;;;;;;;;;5008741;28;20080;-68
2022/07/26 06:16:42;;;;;;;15.80;4.50;;;;;;;;;;5001068;28;20022;-68
2022/07/26 06:19:07;;;;;;;19.23;4.57;;;;;;;;;;5005521;28;20018;-68
2022/07/26 06:21:32;;;;;;;25.67;4.23;;;;;;;;;;5007200;28;20059;-68
2022/07/26 06:23:57;;;;;;;17.40;4.40;;;;;;;;;;5009140;28;20053;-68
2022/07/26 06:26:23;;;;;;;21.40;4.43;;;;;;;;;;5003053;28;20084;-68
2022/07/26 06:28:50;;;;;;;19.83;4.50;;;;;;;;;;5006923;28;20350;-68
2022/07/26 06:31:16;;;;;;;18.50;4.50;;;;;;;;;;4998120;28;20069;-68
2022/07/26 06:33:56;;;;;;;24.65;4.75;;;;;;;;;;4973918;28;20052;-68
2022/07/26 06:36:21;;;;;;;24.10;4.20;;;;;;;;;;5002249;28;20022;-68
2022/07/26 06:38:47;;;;;;;12.47;4.00;;;;;;;;;;5005629;28;20779;-69
2022/07/26 06:41:12;;;;;;;20.88;4.07;;;;;;;;;;5006660;28;20338;-68
2022/07/26 06:43:39;;;;;;;26.20;4.37;;;;;;;;;;5005766;28;20036;-68
2022/07/26 06:46:04;;;;;;;18.83;5.35;;;;;;;;;;5008869;28;20253;-68
2022/07/26 06:48:29;;;;;;;16.65;6.18;;;;;;;;;;5004239;28;20394;-68
2022/07/26 06:50:54;;;;;;;17.57;5.17;;;;;;;;;;5005830;28;20018;-68
2022/07/26 06:53:19;;;;;;;16.37;4.50;;;;;;;;;;5010002;28;20292;-68
2022/07/26 06:55:45;;;;;;;31.27;6.07;;;;;;;;;;5002685;28;21024;-68
2022/07/26 06:58:10;;;;;;;16.73;4.63;;;;;;;;;;5005266;28;20302;-68
2022/07/26 07:00:35;;;;;;;23.15;5.13;;;;;;;;;;4999394;28;20288;-69
2022/07/26 07:03:00;;;;;;;23.47;5.13;;;;;;;;;;5003150;28;20393;-68
2022/07/26 07:05:25;;;;;;;19.90;5.13;;;;;;;;;;5003952;28;20281;-68
2022/07/26 07:07:51;;;;;;;17.57;5.17;;;;;;;;;;4997348;28;20358;-68
2022/07/26 07:10:16;;;;;;;37.27;7.40;;;;;;;;;;5002875;28;20966;-68
2022/07/26 07:12:43;;;;;;;20.00;5.53;;;;;;;;;;5002350;28;20261;-68
2022/07/26 07:15:09;;;;;;;18.95;4.90;;;;;;;;;;4998638;28;20509;-68
2022/07/26 07:17:34;;;;;;;21.50;6.35;;;;;;;;;;5009314;28;20034;-68
2022/07/26 07:19:59;;;;;;;18.93;6.53;;;;;;;;;;5003395;28;20026;-68
2022/07/26 07:22:24;;;;;;;22.97;6.87;;;;;;;;;;5002040;28;20769;-68
2022/07/26 07:24:49;;;;;;;32.47;5.78;;;;;;;;;;5007112;28;20274;-68
2022/07/26 07:27:15;;;;;;;22.10;5.50;;;;;;;;;;5002666;28;20080;-68
2022/07/26 07:29:40;;;;;;;21.17;5.37;;;;;;;;;;5006767;28;20532;-68
2022/07/26 07:32:05;;;;;;;22.67;6.10;;;;;;;;;;5003801;28;20277;-68
2022/07/26 07:34:30;;;;;;;24.13;6.93;;;;;;;;;;5004952;28;20033;-68
2022/07/26 07:36:56;;;;;;;23.17;5.70;;;;;;;;;;5010772;28;20049;-68
2022/07/26 07:39:21;;;;;;;31.50;6.82;;;;;;;;;;5004984;28;20069;-68
2022/07/26 07:41:46;;;;;;;24.83;8.73;;;;;;;;;;5011287;28;20442;-68
2022/07/26 07:44:12;;;;;;;24.08;7.18;;;;;;;;;;5006400;28;20776;-68
2022/07/26 07:46:37;;;;;;;21.45;7.55;;;;;;;;;;5010431;28;20057;-68
2022/07/26 07:49:02;;;;;;;27.90;7.20;;;;;;;;;;5000864;28;20056;-68
2022/07/26 07:51:27;;;;;;;30.50;9.30;;;;;;;;;;5009894;28;20298;-68
2022/07/26 07:53:53;;;;;;;20.38;9.60;;;;;;;;;;5006776;28;20726;-68
2022/07/26 07:56:18;;;;;;;21.13;8.48;;;;;;;;;;5009622;28;20046;-68
2022/07/26 07:58:43;;;;;;;25.27;10.13;;;;;;;;;;5003386;28;20042;-68
2022/07/26 08:01:08;;;;;;;25.70;9.90;;;;;;;;;;5000984;28;20272;-68
2022/07/26 08:03:34;;;;;;;23.60;10.90;;;;;;;;;;5010062;28;20037;-68
2022/07/26 08:06:00;;;;;;;26.63;12.03;;;;;;;;;;5006742;28;20029;-68
2022/07/26 08:08:25;;;;;;;33.08;10.40;;;;;;;;;;5004342;28;20787;-68
2022/07/26 08:10:50;;;;;;;31.10;11.80;;;;;;;;;;5003648;28;20023;-68
2022/07/26 08:13:15;;;;;;;28.75;11.77;;;;;;;;;;5000360;28;20028;-68
2022/07/26 08:15:41;;;;;;;29.60;11.90;;;;;;;;;;5010009;28;20021;-68
2022/07/26 08:18:06;;;;;;;33.90;13.43;;;;;;;;;;5009100;28;20061;-68
2022/07/26 08:20:31;;;;;;;34.13;13.57;;;;;;;;;;5006027;28;20430;-68
2022/07/26 08:22:56;;;;;;;26.33;12.55;;;;;;;;;;5004664;28;20284;-68
2022/07/26 08:25:21;;;;;;;30.90;12.83;;;;;;;;;;5002153;28;20131;-68
2022/07/26 08:27:47;;;;;;;29.53;11.60;;;;;;;;;;5005111;28;20027;-67
2022/07/26 08:30:12;;;;;;;41.30;14.50;;;;;;;;;;5002535;28;20283;-68
2022/07/26 08:32:37;;;;;;;36.90;14.50;;;;;;;;;;5006946;28;20022;-68
2022/07/26 08:35:02;;;;;;;30.02;13.77;;;;;;;;;;5002699;28;20029;-68
2022/07/26 08:37:28;;;;;;;28.33;13.80;;;;;;;;;;5003505;28;20030;-68
2022/07/26 08:39:53;;;;;;;29.80;15.13;;;;;;;;;;5006763;28;20030;-68
2022/07/26 08:42:19;;;;;;;31.37;14.77;;;;;;;;;;5009761;28;20284;-68
2022/07/26 08:44:45;;;;;;;28.00;13.93;;;;;;;;;;5000919;28;20269;-68
2022/07/26 08:47:14;;;;;;;31.33;13.30;;;;;;;;;;5006261;28;20446;-68
2022/07/26 08:49:40;;;;;;;30.25;12.70;;;;;;;;;;5004242;28;20030;-68
2022/07/26 08:52:05;;;;;;;34.28;13.48;;;;;;;;;;5006433;28;20079;-68
2022/07/26 08:54:31;;;;;;;25.25;12.85;;;;;;;;;;5004508;28;20360;-68
2022/07/26 08:56:57;;;;;;;33.35;13.40;;;;;;;;;;5004217;28;20056;-68
2022/07/26 08:59:23;;;;;;;36.13;14.18;;;;;;;;;;5004594;28;20022;-68
2022/07/26 09:01:59;;;;;;;36.42;13.80;;;;;;;;;;5005794;28;20069;-68
2022/07/26 09:04:26;;;;;;;26.50;12.75;;;;;;;;;;5007614;28;20032;-68
2022/07/26 09:07:06;;;;;;;32.10;12.75;;;;;;;;;;5008749;28;20437;-68
2022/07/26 09:09:33;;;;;;;29.77;11.82;;;;;;;;;;5007215;28;20030;-68
2022/07/26 09:12:11;;;;;;;27.25;11.68;;;;;;;;;;5001910;28;20018;-68
2022/07/26 09:14:37;;;;;;;24.30;11.82;;;;;;;;;;5003807;28;20629;-68
2022/07/26 09:17:02;;;;;;;22.17;11.82;;;;;;;;;;4996624;28;20024;-68
2022/07/26 09:19:27;;;;;;;25.07;13.83;;;;;;;;;;4993316;28;20034;-68
2022/07/26 09:21:54;;;;;;;32.03;13.53;;;;;;;;;;5001942;28;20781;-68
2022/07/26 09:24:32;;;;;;;29.02;12.50;;;;;;;;;;4999290;28;20269;-68
2022/07/26 09:26:59;;;;;;;23.02;12.60;;;;;;;;;;5005732;28;20028;-68
2022/07/26 09:29:24;;;;;;;34.65;15.52;;;;;;;;;;5011153;28;20025;-68
2022/07/26 09:31:49;;;;;;;25.73;11.57;;;;;;;;;;4997160;28;20018;-68
2022/07/26 09:34:23;;;;;;;20.77;12.02;;;;;;;;;;4999673;28;20087;-68
2022/07/26 09:36:52;;;;;;;25.15;12.85;;;;;;;;;;5006827;28;20018;-68
2022/07/26 09:39:17;;;;;;;25.07;12.00;;;;;;;;;;5003208;28;20062;-68
2022/07/26 09:41:42;;;;;;;26.48;10.50;;;;;;;;;;5001378;28;20537;-68
2022/07/26 09:44:21;;;;;;;32.07;10.10;;;;;;;;;;5003970;28;20487;-68
2022/07/26 09:46:50;;;;;;;24.27;10.55;;;;;;;;;;5005573;28;20288;-68
2022/07/26 09:49:19;;;;;;;16.52;9.77;;;;;;;;;;5001134;28;20026;-68
2022/07/26 09:51:46;;;;;;;22.63;9.40;;;;;;;;;;5007812;28;20026;-68
2022/07/26 09:54:15;;;;;;;15.82;8.25;;;;;;;;;;5007172;28;20061;-68
2022/07/26 09:56:49;;;;;;;17.17;7.30;;;;;;;;;;5005913;28;20405;-68
2022/07/26 09:59:15;;;;;;;20.30;7.75;;;;;;;;;;5001845;28;20070;-68
2022/07/26 10:01:41;;;;;;;29.75;7.68;;;;;;;;;;4997566;28;20482;-68
2022/07/26 10:04:06;;;;;;;19.80;7.18;;;;;;;;;;5001122;28;20048;-68
2022/07/26 10:06:32;;;;;;;19.13;5.95;;;;;;;;;;5008636;28;20402;-68
2022/07/26 10:08:58;;;;;;;19.13;7.00;;;;;;;;;;4999105;28;20056;-68
2022/07/26 10:11:24;;;;;;;16.75;6.38;;;;;;;;;;5005453;28;20030;-68
2022/07/26 10:13:49;;;;;;;15.45;5.60;;;;;;;;;;5001731;28;20014;-68
2022/07/26 10:16:27;;;;;;;19.40;5.80;;;;;;;;;;5003986;28;20518;-68
2022/07/26 10:18:52;;;;;;;11.85;5.45;;;;;;;;;;5003202;28;20034;-68
2022/07/26 10:21:19;;;;;;;15.60;5.00;;;;;;;;;;5002210;28;20033;-68
2022/07/26 10:23:45;;;;;;;20.10;5.57;;;;;;;;;;4992371;28;20040;-68
2022/07/26 10:26:11;;;;;;;9.23;5.90;;;;;;;;;;4995379;28;20068;-68
2022/07/26 10:28:37;;;;;;;14.50;6.80;;;;;;;;;;5007197;28;20473;-68
2022/07/26 10:31:22;;;;;;;12.63;6.35;;;;;;;;;;5003974;28;20101;-68
2022/07/26 10:33:48;;;;;;;16.83;5.82;;;;;;;;;;5000871;28;20076;-68
2022/07/26 10:36:22;;;;;;;18.00;5.07;;;;;;;;;;5010795;28;20097;-68
2022/07/26 10:39:02;;;;;;;9.27;3.95;;;;;;;;;;5017783;28;20053;-68
2022/07/26 10:41:31;;;;;;;13.90;3.40;;;;;;;;;;5003763;28;20036;-68
2022/07/26 10:44:13;;;;;;;10.57;3.45;;;;;;;;;;4999174;28;20494;-68
2022/07/26 10:46:55;;;;;;;11.95;3.22;;;;;;;;;;5005764;28;20033;-68
2022/07/26 10:49:25;;;;;;;8.43;3.35;;;;;;;;;;4998535;28;20184;-69
2022/07/26 10:52:03;;;;;;;9.95;3.15;;;;;;;;;;5002652;28;20432;-68
2022/07/26 10:54:28;;;;;;;9.88;3.17;;;;;;;;;;5001242;28;20014;-68
2022/07/26 10:56:53;;;;;;;12.65;3.30;;;;;;;;;;5007359;28;20048;-68
2022/07/26 10:59:29;;;;;;;11.75;3.78;;;;;;;;;;5000260;28;20044;-68
2022/07/26 11:01:55;;;;;;;11.93;2.88;;;;;;;;;;5009163;28;20430;-68
2022/07/26 11:04:20;;;;;;;11.07;3.30;;;;;;;;;;5004250;28;20026;-68
2022/07/26 11:06:46;;;;;;;12.70;2.78;;;;;;;;;;5000005;28;20026;-68
2022/07/26 11:09:11;;;;;;;16.52;2.58;;;;;;;;;;5000568;28;20030;-68
2022/07/26 11:11:37;;;;;;;5.45;2.03;;;;;;;;;;5008545;28;20061;-68
2022/07/26 11:14:05;;;;;;;4.72;1.90;;;;;;;;;;4998796;28;20105;-68
2022/07/26 11:16:41;;;;;;;6.20;1.83;;;;;;;;;;5004109;28;20045;-67
2022/07/26 11:19:19;;;;;;;11.93;2.05;;;;;;;;;;5001862;28;20100;-68
2022/07/26 11:21:45;;;;;;;7.10;3.05;;;;;;;;;;4997146;28;20084;-68
2022/07/26 11:24:10;;;;;;;9.10;2.72;;;;;;;;;;5000438;28;20300;-68
2022/07/26 11:26:42;;;;;;;4.37;2.00;;;;;;;;;;5004366;28;20421;-68
2022/07/26 11:29:07;;;;;;;7.13;2.30;;;;;;;;;;4999668;28;20319;-68
2022/07/26 11:31:50;;;;;;;8.60;1.80;;;;;;;;;;5003072;28;20466;-68
2022/07/26 11:34:22;;;;;;;11.05;2.08;;;;;;;;;;4996918;28;20026;-68
2022/07/26 11:36:48;;;;;;;7.93;2.17;;;;;;;;;;5005558;28;20049;-68
2022/07/26 11:39:15;;;;;;;7.95;1.67;;;;;;;;;;4997229;28;20745;-68
2022/07/26 11:41:41;;;;;;;6.30;2.28;;;;;;;;;;4996783;28;20054;-68
2022/07/26 11:44:13;;;;;;;8.82;1.50;;;;;;;;;;5004980;28;20013;-68
2022/07/26 11:46:39;;;;;;;4.00;1.40;;;;;;;;;;5003953;28;20026;-69
2022/07/26 11:49:11;;;;;;;7.70;1.88;;;;;;;;;;5005377;28;20102;-68
2022/07/26 11:51:36;;;;;;;9.40;2.08;;;;;;;;;;5001517;28;20379;-68
2022/07/26 11:54:02;;;;;;;4.77;1.60;;;;;;;;;;4995512;28;20025;-69
2022/07/26 11:56:29;;;;;;;4.07;1.70;;;;;;;;;;5000527;28;20288;-68
2022/07/26 11:58:55;;;;;;;9.48;2.20;;;;;;;;;;5003213;28;20022;-68
2022/07/26 12:01:21;;;;;;;4.88;1.70;;;;;;;;;;5000319;28;20081;-68
2022/07/26 12:03:47;;;;;;;5.85;1.70;;;;;;;;;;5007274;28;20029;-69
2022/07/26 12:06:20;;;;;;;6.65;1.70;;;;;;;;;;4999725;28;20026;-68
2022/07/26 12:08:46;;;;;;;8.77;2.00;;;;;;;;;;5006712;28;20026;-68
2022/07/26 12:11:11;;;;;;;9.73;2.10;;;;;;;;;;5003281;28;20023;-68
2022/07/26 12:13:47;;;;;;;4.72;1.85;;;;;;;;;;4995644;28;20110;-68
2022/07/26 12:16:13;;;;;;;7.85;1.98;;;;;;;;;;5003109;28;20072;-68
2022/07/26 12:18:38;;;;;;;8.75;3.17;;;;;;;;;;5003752;28;20025;-68
2022/07/26 12:21:04;;;;;;;6.28;2.03;;;;;;;;;;4997287;28;20045;-68
2022/07/26 12:23:51;;;;;;;16.98;2.00;;;;;;;;;;5003157;28;20032;-68
2022/07/26 12:26:24;;;;;;;6.22;1.90;;;;;;;;;;5003922;28;20104;-68
2022/07/26 12:28:49;;;;;;;8.93;1.92;;;;;;;;;;5009120;28;20359;-68
2022/07/26 12:31:25;;;;;;;8.60;2.33;;;;;;;;;;5005980;28;20080;-68
2022/07/26 12:33:50;;;;;;;5.82;2.00;;;;;;;;;;4998224;28;20046;-69
2022/07/26 12:36:16;;;;;;;5.18;1.75;;;;;;;;;;5009744;28;20017;-68
2022/07/26 12:38:42;;;;;;;6.65;1.67;;;;;;;;;;5006788;28;20030;-68
2022/07/26 12:41:09;;;;;;;4.97;2.28;;;;;;;;;;5001710;28;20021;-68
2022/07/26 12:43:40;;;;;;;10.88;1.80;;;;;;;;;;4998654;28;20022;-68
2022/07/26 12:46:05;;;;;;;10.32;2.30;;;;;;;;;;5006686;28;20029;-68
2022/07/26 12:48:31;;;;;;;6.45;2.65;;;;;;;;;;5002658;28;20033;-68
2022/07/26 12:50:56;;;;;;;5.43;1.63;;;;;;;;;;5009677;28;20021;-68
2022/07/26 12:53:21;;;;;;;3.03;1.50;;;;;;;;;;5005755;28;20026;-68
2022/07/26 12:55:47;;;;;;;2.83;1.70;;;;;;;;;;4997147;28;20105;-68
2022/07/26 12:58:12;;;;;;;7.23;1.63;;;;;;;;;;5003687;28;20056;-68
2022/07/26 13:00:37;;;;;;;8.15;1.77;;;;;;;;;;5000206;28;20390;-68
2022/07/26 13:03:02;;;;;;;17.43;2.50;;;;;;;;;;5007219;28;20061;-68
2022/07/26 13:05:27;;;;;;;5.78;2.17;;;;;;;;;;5003819;28;20364;-68
2022/07/26 13:07:54;;;;;;;5.80;2.00;;;;;;;;;;4998975;28;20058;-68
2022/07/26 13:10:19;;;;;;;88.32;8.20;;;;;;;;;;5006450;28;20406;-68
2022/07/26 13:12:44;;;;;;;8.00;2.13;;;;;;;;;;5004063;28;20042;-68
2022/07/26 13:15:09;;;;;;;6.93;1.57;;;;;;;;;;5001991;28;20515;-68
2022/07/26 13:17:35;;;;;;;3.42;1.85;;;;;;;;;;4996945;28;20431;-68
2022/07/26 13:20:00;;;;;;;5.05;1.42;;;;;;;;;;5006605;28;20044;-68
2022/07/26 13:23:02;;;;;;;6.28;2.08;;;;;;;;;;4999965;28;20481;-68
2022/07/26 13:25:27;;;;;;;9.85;1.65;;;;;;;;;;4998597;28;20462;-68
2022/07/26 13:27:52;;;;;;;7.07;2.53;;;;;;;;;;5003695;28;20037;-68
2022/07/26 13:30:18;;;;;;;11.20;1.70;;;;;;;;;;4994385;28;20281;-68
2022/07/26 13:32:43;;;;;;;6.63;1.50;;;;;;;;;;4997262;28;20021;-68
2022/07/26 13:35:08;;;;;;;5.43;1.60;;;;;;;;;;4989028;28;20080;-68
2022/07/26 13:37:33;;;;;;;4.63;1.55;;;;;;;;;;4994922;28;20355;-68
2022/07/26 13:39:59;;;;;;;7.07;2.00;;;;;;;;;;4990466;28;20037;-68
2022/07/26 13:42:24;;;;;;;5.00;2.30;;;;;;;;;;4993200;28;20030;-68
2022/07/26 13:44:49;;;;;;;3.73;1.60;;;;;;;;;;4990589;28;20022;-68
2022/07/26 13:47:14;;;;;;;7.78;1.63;;;;;;;;;;4993954;28;20072;-68
2022/07/26 13:55:46;;;;;;;11.20;1.30;;;;;;;;;;5007675;28;20049;-68
2022/07/26 13:58:11;;;;;;;11.10;1.60;;;;;;;;;;5008683;28;20022;-68
2022/07/26 14:00:36;;;;;;;3.45;1.38;;;;;;;;;;5004013;28;20034;-68
2022/07/26 14:03:01;;;;;;;4.07;1.27;;;;;;;;;;5004837;28;20024;-68
2022/07/26 14:05:27;;;;;;;11.93;1.60;;;;;;;;;;5008238;28;20022;-68
2022/07/26 14:07:53;;;;;;;6.65;1.30;;;;;;;;;;5010665;28;20633;-68
2022/07/26 14:10:19;;;;;;;5.40;1.60;;;;;;;;;;5007227;28;20025;-68
2022/07/26 14:12:44;;;;;;;3.92;1.35;;;;;;;;;;5008347;28;20033;-68
2022/07/26 14:15:09;;;;;;;4.17;1.33;;;;;;;;;;5007564;28;20025;-68
2022/07/26 14:17:35;;;;;;;6.70;1.50;;;;;;;;;;5011142;28;20626;-68
2022/07/26 14:20:00;;;;;;;4.03;1.17;;;;;;;;;;5007487;28;20172;-68
2022/07/26 14:22:25;;;;;;;4.15;1.27;;;;;;;;;;5009086;28;20406;-68
2022/07/26 14:24:50;;;;;;;3.40;1.20;;;;;;;;;;5008594;28;20033;-68
2022/07/26 14:27:16;;;;;;;2.47;0.97;;;;;;;;;;5010853;28;20249;-68
2022/07/26 14:29:42;;;;;;;3.20;1.03;;;;;;;;;;5002450;28;20287;-68
2022/07/26 14:32:07;;;;;;;4.60;0.90;;;;;;;;;;5004331;28;20017;-68
2022/07/26 14:34:32;;;;;;;6.63;1.10;;;;;;;;;;5008851;28;20018;-68
2022/07/26 14:36:58;;;;;;;2.27;1.00;;;;;;;;;;5010682;28;20775;-68
2022/07/26 14:39:23;;;;;;;1.93;0.83;;;;;;;;;;5008089;28;20029;-68